createdAt,value
2018-12-31T14:49:16.075Z,10.60
2018-12-31T14:51:44.560Z,10.70
2018-12-31T14:54:13.028Z,10.80
2018-12-31T14:56:41.447Z,10.80
2018-12-31T14:59:09.849Z,10.80
2018-12-31T15:01:38.269Z,10.90
2018-12-31T15:04:06.671Z,10.90
2018-12-31T15:06:35.139Z,10.90
2018-12-31T15:09:04.837Z,10.90
2018-12-31T15:11:33.251Z,10.80
2018-12-31T15:14:01.668Z,10.80
2018-12-31T15:16:30.072Z,10.80
2018-12-31T15:18:58.461Z,10.70
2018-12-31T15:21:26.913Z,10.70
2018-12-31T15:23:55.319Z,10.70
2018-12-31T15:26:24.129Z,10.70
2018-12-31T15:28:52.566Z,10.70
2018-12-31T15:31:20.975Z,10.70
2018-12-31T15:33:49.429Z,10.70
2018-12-31T15:36:17.843Z,10.70
2018-12-31T15:38:46.318Z,10.70
2018-12-31T15:41:14.736Z,10.70
2018-12-31T15:43:43.143Z,10.70
2018-12-31T15:46:11.551Z,10.70
2018-12-31T15:48:39.981Z,10.80
2018-12-31T15:51:09.117Z,10.70
2018-12-31T15:53:39.260Z,10.70
2018-12-31T15:56:07.664Z,10.70
2018-12-31T15:58:36.079Z,10.60
2018-12-31T16:01:04.473Z,10.60
2018-12-31T16:03:32.884Z,10.60
2018-12-31T16:06:01.290Z,10.50
2018-12-31T16:08:29.710Z,10.50
2018-12-31T16:10:58.138Z,10.50
2018-12-31T16:13:26.548Z,10.50
2018-12-31T16:15:54.952Z,10.50
2018-12-31T16:18:23.762Z,10.40
2018-12-31T16:20:52.153Z,10.40
2018-12-31T16:23:20.569Z,10.40
2018-12-31T16:25:48.996Z,10.40
2018-12-31T16:28:17.402Z,10.30
2018-12-31T16:30:46.295Z,10.30
2018-12-31T16:33:14.787Z,10.30
2018-12-31T16:35:43.232Z,10.30
2018-12-31T16:38:11.672Z,10.30
2018-12-31T16:40:40.219Z,10.30
2018-12-31T16:43:08.660Z,10.30
2018-12-31T16:45:37.088Z,10.30
2018-12-31T16:48:05.644Z,10.30
2018-12-31T16:50:34.048Z,10.20
2018-12-31T16:53:02.479Z,10.20
2018-12-31T16:55:30.906Z,10.10
2018-12-31T16:57:59.321Z,10.20
2018-12-31T17:00:27.724Z,10.10
2018-12-31T17:02:56.156Z,10.20
2018-12-31T17:05:24.559Z,10.20
2018-12-31T17:07:53.053Z,10.20
2018-12-31T17:10:21.467Z,10.10
2018-12-31T17:12:49.921Z,10.10
2018-12-31T17:15:18.317Z,10.20
2018-12-31T17:17:46.743Z,10.20
2018-12-31T17:20:15.156Z,10.20
2018-12-31T17:22:43.567Z,10.20
2018-12-31T17:25:12.085Z,10.10
2018-12-31T17:27:40.507Z,10.10
2018-12-31T17:30:09.015Z,10.10
2018-12-31T17:32:37.465Z,10.10
2018-12-31T17:35:06.003Z,10.00
2018-12-31T17:37:34.663Z,10.00
2018-12-31T17:40:03.244Z,10.10
2018-12-31T17:42:31.632Z,10.10
2018-12-31T17:45:00.020Z,10.20
2018-12-31T17:47:28.423Z,10.30
2018-12-31T17:49:57.297Z,10.40
2018-12-31T17:52:25.679Z,10.40
2018-12-31T17:54:54.096Z,10.40
2018-12-31T17:57:22.491Z,10.40
2018-12-31T17:59:50.880Z,10.50
2018-12-31T18:02:19.275Z,10.50
2018-12-31T18:04:47.667Z,10.60
2018-12-31T18:07:16.056Z,10.50
2018-12-31T18:09:44.461Z,10.60
2018-12-31T18:12:12.849Z,10.60
2018-12-31T18:14:41.232Z,10.60
2018-12-31T18:17:10.019Z,10.60
2018-12-31T18:19:38.422Z,10.60
2018-12-31T18:22:06.814Z,10.60
2018-12-31T18:24:35.208Z,10.60
2018-12-31T18:27:03.675Z,10.60
2018-12-31T18:29:32.460Z,10.60
2018-12-31T18:32:00.843Z,10.70
2018-12-31T18:34:29.248Z,10.70
2018-12-31T18:36:57.652Z,10.70
2018-12-31T18:39:26.072Z,10.70
2018-12-31T18:41:54.572Z,10.70
2018-12-31T18:44:22.975Z,10.60
2018-12-31T18:46:51.370Z,10.70
2018-12-31T18:49:19.789Z,10.60
2018-12-31T18:51:49.083Z,10.60
2018-12-31T18:54:17.628Z,10.60
2018-12-31T18:56:46.066Z,10.50
2018-12-31T18:59:14.531Z,10.50
2018-12-31T19:01:42.938Z,10.50
2018-12-31T19:04:11.370Z,10.40
2018-12-31T19:06:39.886Z,10.40
2018-12-31T19:09:08.776Z,10.40
2018-12-31T19:11:37.212Z,10.40
2018-12-31T19:14:05.619Z,10.30
2018-12-31T19:16:34.021Z,10.20
2018-12-31T19:19:02.542Z,10.20
2018-12-31T19:21:31.016Z,10.20
2018-12-31T19:23:59.442Z,10.20
2018-12-31T19:26:27.863Z,10.10
2018-12-31T19:28:56.282Z,10.00
2018-12-31T19:31:24.682Z,10.00
2018-12-31T19:33:53.298Z,10.00
2018-12-31T19:36:21.699Z,10.00
2018-12-31T19:38:50.112Z,10.00
2018-12-31T19:41:19.111Z,9.90
2018-12-31T19:43:47.506Z,9.90
2018-12-31T19:46:15.906Z,9.90
2018-12-31T19:48:44.803Z,9.80
2018-12-31T19:51:13.273Z,9.90
2018-12-31T19:53:41.941Z,9.80
2018-12-31T19:56:10.379Z,9.80
2018-12-31T19:58:38.819Z,9.80
2018-12-31T20:01:07.235Z,9.80
2018-12-31T20:03:35.615Z,9.80
2018-12-31T20:06:06.979Z,9.80
2018-12-31T20:08:35.482Z,9.80
2018-12-31T20:11:03.966Z,9.80
2018-12-31T20:13:33.050Z,9.80
2018-12-31T20:16:01.526Z,9.80
2018-12-31T20:18:29.952Z,9.80
2018-12-31T20:20:58.355Z,9.80
2018-12-31T20:23:26.908Z,9.80
2018-12-31T20:25:55.391Z,9.80
2018-12-31T20:28:24.119Z,9.70
2018-12-31T20:30:52.594Z,9.80
2018-12-31T20:33:21.004Z,9.70
2018-12-31T20:35:49.414Z,9.70
2018-12-31T20:38:17.838Z,9.70
2018-12-31T20:40:47.624Z,9.70
2018-12-31T20:43:16.351Z,9.80
2018-12-31T20:45:44.756Z,9.80
2018-12-31T20:48:13.155Z,9.80
2018-12-31T20:50:41.570Z,9.80
2018-12-31T20:53:09.985Z,9.80
2018-12-31T20:55:38.430Z,9.80
2018-12-31T20:58:06.831Z,9.80
2018-12-31T21:00:35.238Z,9.70
2018-12-31T21:03:03.812Z,9.80
2018-12-31T21:05:32.258Z,9.70
2018-12-31T21:08:00.723Z,9.70
2018-12-31T21:10:29.516Z,9.70
2018-12-31T21:12:57.923Z,9.70
2018-12-31T21:15:26.859Z,9.70
2018-12-31T21:17:55.248Z,9.70
2018-12-31T21:20:23.631Z,9.80
2018-12-31T21:22:52.615Z,9.80
2018-12-31T21:25:23.664Z,9.90
2018-12-31T21:27:52.086Z,9.80
2018-12-31T21:30:22.135Z,9.90
2018-12-31T21:32:50.575Z,9.90
2018-12-31T21:35:18.976Z,9.80
2018-12-31T21:37:47.402Z,9.80
2018-12-31T21:40:15.899Z,9.80
2018-12-31T21:42:44.317Z,9.70
2018-12-31T21:45:12.711Z,9.70
2018-12-31T21:47:41.110Z,9.70
2018-12-31T21:50:10.008Z,9.70
2018-12-31T21:52:38.526Z,9.70
2018-12-31T21:55:07.011Z,9.70
2018-12-31T21:57:35.500Z,9.70
2018-12-31T22:00:05.940Z,9.70
2018-12-31T22:02:34.353Z,9.70
2018-12-31T22:05:02.794Z,9.80
2018-12-31T22:07:34.084Z,9.80
2018-12-31T22:10:02.558Z,9.70
2018-12-31T22:12:32.306Z,9.70
2018-12-31T22:15:02.238Z,9.70
2018-12-31T22:17:30.636Z,9.70
2018-12-31T22:19:59.064Z,9.70
2018-12-31T22:22:27.504Z,9.70
2018-12-31T22:24:55.904Z,9.70
2018-12-31T22:27:24.342Z,9.70
2018-12-31T22:29:53.140Z,9.80
2018-12-31T22:32:21.547Z,9.70
2018-12-31T22:34:50.008Z,9.70
2018-12-31T22:37:18.411Z,9.70
2018-12-31T22:39:47.042Z,9.70
2018-12-31T22:42:15.838Z,9.70
2018-12-31T22:44:44.248Z,9.70
2018-12-31T22:47:12.719Z,9.70
2018-12-31T22:49:41.147Z,9.70
2018-12-31T22:52:09.571Z,9.60
2018-12-31T22:54:37.973Z,9.60
2018-12-31T22:57:06.367Z,9.60
2018-12-31T22:59:34.760Z,9.60
2018-12-31T23:02:03.318Z,9.80
2018-12-31T23:04:32.389Z,9.80
2018-12-31T23:07:01.537Z,9.80
2018-12-31T23:09:29.938Z,9.80
2018-12-31T23:11:58.380Z,9.80
2018-12-31T23:14:26.792Z,9.80
2018-12-31T23:16:56.316Z,9.80
2018-12-31T23:19:24.779Z,9.70
2018-12-31T23:21:53.256Z,9.70
2018-12-31T23:24:21.664Z,9.70
2018-12-31T23:26:51.632Z,9.70
2018-12-31T23:29:20.042Z,9.70
2018-12-31T23:31:48.436Z,9.70
2018-12-31T23:34:16.880Z,9.70
2018-12-31T23:36:45.281Z,9.70
2018-12-31T23:39:13.694Z,9.70
2018-12-31T23:41:42.114Z,9.70
2018-12-31T23:44:10.589Z,9.70
2018-12-31T23:46:38.988Z,9.70
2018-12-31T23:49:07.393Z,9.60
2018-12-31T23:51:35.795Z,9.60
2018-12-31T23:54:04.191Z,9.70
2018-12-31T23:56:32.583Z,9.70
2018-12-31T23:59:00.996Z,9.90
